Wetterdaten: Woche 15.03.10 - 21.03.10 (KW11)
Datum Zeit Temperatur Luftfeuchte Luftdruck Niederschlag Wind Richtung Sonnenschein Solar Taupunkt Windchill Windben
15.03.2010 00:00 2.6 C 74 % 1026.4 hPa 0.0 l/m 2.1 km/h (1 Bft) SW 0.00 h 0 W/m -1.6 C 2.3 C 4.1 km/h (1 Bft)
15.03.2010 01:00 2.6 C 74 % 1026.2 hPa 0.0 l/m 3.5 km/h (1 Bft) SW 0.00 h 0 W/m -1.5 C 2.1 C 5.8 km/h (2 Bft)
15.03.2010 02:00 2.5 C 74 % 1026.0 hPa 0.0 l/m 1.1 km/h (0 Bft) W-SW 0.00 h 0 W/m -1.6 C 2.5 C 2.4 km/h (1 Bft)
15.03.2010 03:00 2.2 C 75 % 1025.9 hPa 0.0 l/m 0.7 km/h (0 Bft) SW 0.00 h 0 W/m -1.8 C 2.2 C 2.1 km/h (1 Bft)
15.03.2010 04:00 2.1 C 77 % 1025.7 hPa 0.0 l/m 0.8 km/h (0 Bft) SW 0.00 h 0 W/m -1.5 C 2.1 C 2.7 km/h (1 Bft)
15.03.2010 05:00 2.0 C 78 % 1025.8 hPa 0.0 l/m 2.1 km/h (1 Bft) S 0.00 h 0 W/m -1.4 C 1.8 C 3.9 km/h (1 Bft)
15.03.2010 06:00 2.0 C 78 % 1026.2 hPa 0.0 l/m 0.6 km/h (0 Bft) S 0.00 h 5 W/m -1.5 C 2.0 C 1.6 km/h (1 Bft)
15.03.2010 07:00 1.8 C 79 % 1026.5 hPa 0.0 l/m 0.2 km/h (0 Bft) S 0.00 h 27 W/m -1.4 C 1.8 C 1.0 km/h (0 Bft)
15.03.2010 08:00 2.5 C 77 % 1027.0 hPa 0.0 l/m 0.8 km/h (0 Bft) SW 0.00 h 65 W/m -1.0 C 2.5 C 2.1 km/h (1 Bft)
15.03.2010 09:00 3.4 C 75 % 1027.3 hPa 0.0 l/m 1.2 km/h (1 Bft) SW 0.00 h 136 W/m -0.6 C 3.4 C 2.7 km/h (1 Bft)
15.03.2010 10:00 4.8 C 72 % 1027.1 hPa 0.0 l/m 3.6 km/h (1 Bft) W 0.47 h 283 W/m 0.1 C 4.3 C 6.6 km/h (2 Bft)
15.03.2010 11:00 5.3 C 72 % 1027.1 hPa 0.0 l/m 8.1 km/h (2 Bft) W-NW 0.67 h 346 W/m 0.6 C 3.5 C 12.6 km/h (3 Bft)
15.03.2010 12:00 5.9 C 71 % 1027.1 hPa 0.0 l/m 8.2 km/h (2 Bft) W 0.58 h 366 W/m 1.1 C 4.2 C 12.6 km/h (3 Bft)
15.03.2010 13:00 7.5 C 66 % 1026.3 hPa 0.0 l/m 8.2 km/h (2 Bft) W 0.88 h 538 W/m 1.6 C 6.1 C 12.5 km/h (3 Bft)
15.03.2010 14:00 8.2 C 64 % 1025.8 hPa 0.0 l/m 7.6 km/h (2 Bft) W-SW 0.65 h 415 W/m 1.7 C 7.0 C 11.9 km/h (2 Bft)
15.03.2010 15:00 7.6 C 65 % 1025.5 hPa 0.0 l/m 5.3 km/h (1 Bft) O-SO 0.08 h 164 W/m 1.5 C 6.9 C 8.4 km/h (2 Bft)
15.03.2010 16:00 8.3 C 64 % 1025.2 hPa 0.0 l/m 5.2 km/h (1 Bft) SW 0.73 h 272 W/m 1.8 C 7.7 C 8.2 km/h (2 Bft)
15.03.2010 17:00 7.3 C 66 % 1025.0 hPa 0.0 l/m 14.4 km/h (3 Bft) W 0.43 h 98 W/m 1.3 C 4.7 C 21.7 km/h (4 Bft)
15.03.2010 18:00 5.3 C 73 % 1025.8 hPa 0.0 l/m 2.4 km/h (1 Bft) NW 0.07 h 12 W/m 0.9 C 5.1 C 4.7 km/h (1 Bft)
15.03.2010 19:00 4.7 C 77 % 1026.1 hPa 0.0 l/m 1.0 km/h (0 Bft) W-SW 0.00 h 0 W/m 1.1 C 4.7 C 2.4 km/h (1 Bft)
15.03.2010 20:00 3.7 C 80 % 1026.2 hPa 0.0 l/m 0.7 km/h (0 Bft) NO 0.00 h 0 W/m 0.5 C 3.7 C 1.8 km/h (1 Bft)
15.03.2010 21:00 2.8 C 83 % 1026.3 hPa 0.0 l/m 1.3 km/h (1 Bft) S-SO 0.00 h 0 W/m 0.3 C 2.8 C 2.6 km/h (1 Bft)
15.03.2010 22:00 2.8 C 85 % 1026.0 hPa 0.0 l/m 2.5 km/h (1 Bft) S 0.00 h 0 W/m 0.5 C 2.4 C 4.5 km/h (1 Bft)
15.03.2010 23:00 3.1 C 83 % 1025.7 hPa 0.0 l/m 2.5 km/h (1 Bft) S-SO 0.00 h 0 W/m 0.5 C 2.9 C 4.7 km/h (1 Bft)
16.03.2010 00:00 3.4 C 82 % 1025.4 hPa 0.0 l/m 5.1 km/h (1 Bft) S-SO 0.00 h 0 W/m 0.6 C 2.3 C 8.5 km/h (2 Bft)
16.03.2010 01:00 3.5 C 80 % 1024.9 hPa 0.0 l/m 3.4 km/h (1 Bft) S 0.00 h 0 W/m 0.5 C 3.2 C 6.5 km/h (2 Bft)
16.03.2010 02:00 3.4 C 81 % 1024.9 hPa 0.0 l/m 1.5 km/h (1 Bft) S 0.00 h 0 W/m 0.4 C 3.2 C 3.4 km/h (1 Bft)
16.03.2010 03:00 3.1 C 84 % 1024.7 hPa 0.4 l/m 0.7 km/h (0 Bft) S-SO 0.00 h 0 W/m 0.7 C 3.1 C 1.7 km/h (1 Bft)
16.03.2010 04:00 3.0 C 89 % 1024.5 hPa 0.6 l/m 4.1 km/h (1 Bft) SW 0.00 h 0 W/m 1.3 C 2.4 C 6.7 km/h (2 Bft)
16.03.2010 05:00 2.7 C 91 % 1025.0 hPa 0.2 l/m 3.8 km/h (1 Bft) S-SW 0.00 h 0 W/m 1.4 C 2.2 C 7.3 km/h (2 Bft)
16.03.2010 06:00 2.2 C 91 % 1025.2 hPa 0.0 l/m 6.6 km/h (2 Bft) S-SO 0.00 h 6 W/m 0.9 C 0.4 C 11.7 km/h (2 Bft)
16.03.2010 07:00 2.2 C 92 % 1025.7 hPa 0.2 l/m 4.2 km/h (1 Bft) S 0.00 h 28 W/m 1.1 C 1.5 C 7.5 km/h (2 Bft)
16.03.2010 08:00 2.6 C 92 % 1026.6 hPa 0.2 l/m 3.2 km/h (1 Bft) S 0.00 h 49 W/m 1.5 C 2.3 C 6.3 km/h (2 Bft)
16.03.2010 09:00 3.1 C 93 % 1027.2 hPa 0.0 l/m 3.3 km/h (1 Bft) S-SO 0.00 h 46 W/m 2.0 C 2.8 C 5.9 km/h (2 Bft)
16.03.2010 10:00 3.5 C 92 % 1027.8 hPa 0.2 l/m 1.8 km/h (1 Bft) S 0.00 h 118 W/m 2.4 C 3.5 C 4.1 km/h (1 Bft)
16.03.2010 11:00 5.7 C 90 % 1027.8 hPa 0.0 l/m 5.6 km/h (1 Bft) S-SO 0.52 h 451 W/m 4.1 C 4.8 C 9.2 km/h (2 Bft)
16.03.2010 12:00 7.0 C 75 % 1027.7 hPa 0.0 l/m 9.5 km/h (2 Bft) W-SW 0.57 h 434 W/m 2.9 C 5.3 C 14.9 km/h (3 Bft)
16.03.2010 13:00 7.6 C 70 % 1027.8 hPa 0.0 l/m 10.1 km/h (2 Bft) W 0.33 h 318 W/m 2.4 C 5.8 C 15.4 km/h (3 Bft)
16.03.2010 14:00 9.0 C 60 % 1027.5 hPa 0.0 l/m 7.8 km/h (2 Bft) W-SW 0.93 h 485 W/m 1.7 C 8.0 C 11.7 km/h (2 Bft)
16.03.2010 15:00 10.1 C 54 % 1027.3 hPa 0.0 l/m 5.0 km/h (1 Bft) W 1.00 h 430 W/m 1.1 C 9.9 C 7.7 km/h (2 Bft)
16.03.2010 16:00 10.8 C 51 % 1027.2 hPa 0.0 l/m 3.6 km/h (1 Bft) W-SW 1.00 h 278 W/m 0.9 C 10.8 C 6.2 km/h (2 Bft)
16.03.2010 17:00 9.9 C 51 % 1027.3 hPa 0.0 l/m 2.2 km/h (1 Bft) W-SW 0.28 h 79 W/m 0.4 C 9.9 C 4.3 km/h (1 Bft)
16.03.2010 18:00 8.0 C 64 % 1027.8 hPa 0.0 l/m 3.2 km/h (1 Bft) SO 0.07 h 17 W/m 1.5 C 7.7 C 5.1 km/h (1 Bft)
16.03.2010 19:00 5.2 C 77 % 1028.6 hPa 0.0 l/m 4.9 km/h (1 Bft) SO 0.00 h 0 W/m 1.4 C 4.4 C 6.7 km/h (2 Bft)
16.03.2010 20:00 3.9 C 80 % 1029.1 hPa 0.0 l/m 4.5 km/h (1 Bft) O-SO 0.00 h 0 W/m 0.8 C 3.2 C 5.9 km/h (2 Bft)
16.03.2010 21:00 2.4 C 84 % 1029.6 hPa 0.0 l/m 1.5 km/h (1 Bft) O-SO 0.00 h 0 W/m -0.0 C 2.3 C 2.3 km/h (1 Bft)
16.03.2010 22:00 1.5 C 87 % 1029.7 hPa 0.0 l/m 1.0 km/h (0 Bft) O-SO 0.00 h 0 W/m -0.5 C 1.5 C 2.1 km/h (1 Bft)
16.03.2010 23:00 0.7 C 88 % 1029.8 hPa 0.0 l/m 1.2 km/h (1 Bft) O-SO 0.00 h 0 W/m -1.1 C 0.6 C 1.9 km/h (1 Bft)
17.03.2010 00:00 0.0 C 90 % 1029.8 hPa 0.0 l/m 1.4 km/h (1 Bft) O-SO 0.00 h 0 W/m -1.4 C 0.0 C 2.5 km/h (1 Bft)
17.03.2010 01:00 -0.3 C 91 % 1029.7 hPa 0.0 l/m 0.4 km/h (0 Bft) O-SO 0.00 h 0 W/m -1.6 C -0.3 C 1.1 km/h (1 Bft)
17.03.2010 02:00 -0.8 C 91 % 1029.8 hPa 0.0 l/m 1.1 km/h (1 Bft) O-SO 0.00 h 0 W/m -2.0 C -0.8 C 1.9 km/h (1 Bft)
17.03.2010 03:00 -1.1 C 92 % 1029.3 hPa 0.0 l/m 0.4 km/h (0 Bft) O-SO 0.00 h 0 W/m -2.2 C -1.1 C 1.2 km/h (1 Bft)
17.03.2010 04:00 -1.5 C 92 % 1029.3 hPa 0.0 l/m 0.1 km/h (0 Bft) O-SO 0.00 h 0 W/m -2.6 C -1.5 C 0.3 km/h (0 Bft)
17.03.2010 05:00 -1.5 C 94 % 1029.4 hPa 0.0 l/m 0.7 km/h (0 Bft) O-SO 0.00 h 0 W/m -2.3 C -1.5 C 1.3 km/h (1 Bft)
17.03.2010 06:00 -0.9 C 95 % 1029.6 hPa 0.0 l/m 1.5 km/h (1 Bft) O-SO 0.00 h 7 W/m -1.6 C -1.0 C 3.3 km/h (1 Bft)
17.03.2010 07:00 -0.7 C 96 % 1030.2 hPa 0.0 l/m 1.4 km/h (1 Bft) O 0.00 h 24 W/m -1.3 C -0.7 C 3.4 km/h (1 Bft)
17.03.2010 08:00 -0.2 C 96 % 1030.7 hPa 0.0 l/m 0.9 km/h (0 Bft) O 0.00 h 71 W/m -0.7 C -0.3 C 2.1 km/h (1 Bft)
17.03.2010 09:00 0.7 C 97 % 1030.9 hPa 0.0 l/m 0.6 km/h (0 Bft) O 0.23 h 215 W/m 0.3 C 0.7 C 2.0 km/h (1 Bft)
17.03.2010 10:00 2.4 C 97 % 1030.5 hPa 0.0 l/m 0.6 km/h (0 Bft) SO 1.00 h 374 W/m 2.0 C 2.4 C 2.0 km/h (1 Bft)
17.03.2010 11:00 4.9 C 89 % 1029.9 hPa 0.0 l/m 1.7 km/h (1 Bft) N-NW 1.00 h 488 W/m 3.2 C 4.9 C 3.7 km/h (1 Bft)
17.03.2010 12:00 8.5 C 65 % 1029.0 hPa 0.0 l/m 3.8 km/h (1 Bft) S-SO 1.00 h 607 W/m 2.2 C 8.3 C 6.6 km/h (2 Bft)
17.03.2010 13:00 11.9 C 49 % 1028.1 hPa 0.0 l/m 4.3 km/h (1 Bft) SO 1.00 h 607 W/m 1.5 C 11.9 C 7.6 km/h (2 Bft)
17.03.2010 14:00 12.9 C 44 % 1027.4 hPa 0.0 l/m 5.1 km/h (1 Bft) SO 1.00 h 520 W/m 1.1 C 12.9 C 8.4 km/h (2 Bft)
17.03.2010 15:00 13.7 C 40 % 1027.0 hPa 0.0 l/m 4.0 km/h (1 Bft) S-SO 1.00 h 384 W/m 0.4 C 13.7 C 7.0 km/h (2 Bft)
17.03.2010 16:00 14.7 C 37 % 1026.6 hPa 0.0 l/m 2.1 km/h (1 Bft) S-SO 0.53 h 216 W/m 0.2 C 14.7 C 4.3 km/h (1 Bft)
17.03.2010 17:00 13.8 C 41 % 1026.5 hPa 0.0 l/m 0.7 km/h (0 Bft) SW 0.00 h 76 W/m 0.8 C 13.8 C 1.5 km/h (1 Bft)
17.03.2010 18:00 11.9 C 49 % 1026.6 hPa 0.0 l/m 1.3 km/h (1 Bft) O-SO 0.00 h 16 W/m 1.4 C 11.9 C 2.4 km/h (1 Bft)
17.03.2010 19:00 9.2 C 60 % 1027.1 hPa 0.0 l/m 3.1 km/h (1 Bft) O 0.00 h 0 W/m 1.7 C 9.1 C 4.7 km/h (1 Bft)
17.03.2010 20:00 7.3 C 65 % 1027.3 hPa 0.0 l/m 1.1 km/h (1 Bft) O 0.00 h 0 W/m 1.1 C 7.3 C 2.1 km/h (1 Bft)
17.03.2010 21:00 5.5 C 72 % 1027.5 hPa 0.0 l/m 1.5 km/h (1 Bft) O 0.00 h 0 W/m 0.8 C 5.5 C 2.5 km/h (1 Bft)
17.03.2010 22:00 4.4 C 76 % 1027.7 hPa 0.0 l/m 0.8 km/h (0 Bft) O 0.00 h 0 W/m 0.5 C 4.4 C 1.8 km/h (1 Bft)
17.03.2010 23:00 3.4 C 79 % 1027.7 hPa 0.0 l/m 0.2 km/h (0 Bft) O 0.00 h 0 W/m 0.1 C 3.4 C 0.7 km/h (0 Bft)
18.03.2010 00:00 2.9 C 81 % 1027.5 hPa 0.0 l/m 0.4 km/h (0 Bft) O 0.00 h 0 W/m 0.1 C 2.9 C 1.0 km/h (0 Bft)
18.03.2010 01:00 2.7 C 82 % 1027.5 hPa 0.0 l/m 0.8 km/h (0 Bft) O 0.00 h 0 W/m -0.0 C 2.7 C 1.5 km/h (1 Bft)
18.03.2010 02:00 2.5 C 84 % 1027.3 hPa 0.0 l/m 0.0 km/h (0 Bft) N 0.00 h 0 W/m -0.0 C 2.5 C 0.1 km/h (0 Bft)
18.03.2010 03:00 2.1 C 85 % 1027.0 hPa 0.0 l/m 0.7 km/h (0 Bft) O 0.00 h 0 W/m -0.1 C 2.1 C 1.4 km/h (1 Bft)
18.03.2010 04:00 1.9 C 87 % 1026.6 hPa 0.0 l/m 0.1 km/h (0 Bft) O 0.00 h 0 W/m -0.1 C 1.9 C 0.2 km/h (0 Bft)
18.03.2010 05:00 1.3 C 87 % 1026.9 hPa 0.0 l/m 0.3 km/h (0 Bft) O 0.00 h 0 W/m -0.6 C 1.3 C 0.6 km/h (0 Bft)
18.03.2010 06:00 0.9 C 88 % 1027.1 hPa 0.0 l/m 0.2 km/h (0 Bft) O 0.25 h 17 W/m -0.9 C 0.9 C 0.4 km/h (0 Bft)
18.03.2010 07:00 1.1 C 89 % 1027.6 hPa 0.0 l/m 0.1 km/h (0 Bft) O 0.98 h 101 W/m -0.4 C 1.1 C 0.4 km/h (0 Bft)
18.03.2010 08:00 3.1 C 87 % 1027.6 hPa 0.0 l/m 0.1 km/h (0 Bft) O 1.00 h 209 W/m 1.1 C 3.1 C 0.6 km/h (0 Bft)
18.03.2010 09:00 5.4 C 78 % 1027.6 hPa 0.0 l/m 0.3 km/h (0 Bft) O 1.00 h 317 W/m 1.8 C 5.4 C 1.2 km/h (1 Bft)
18.03.2010 10:00 8.2 C 65 % 1027.2 hPa 0.0 l/m 0.8 km/h (0 Bft) O-NO 1.00 h 384 W/m 2.0 C 8.2 C 2.3 km/h (1 Bft)
18.03.2010 11:00 11.4 C 50 % 1026.5 hPa 0.0 l/m 2.1 km/h (1 Bft) S 1.00 h 483 W/m 1.2 C 11.4 C 4.8 km/h (1 Bft)
18.03.2010 12:00 14.3 C 37 % 1025.5 hPa 0.0 l/m 3.2 km/h (1 Bft) S-SO 1.00 h 588 W/m -0.0 C 14.3 C 5.7 km/h (1 Bft)
18.03.2010 13:00 16.2 C 31 % 1024.4 hPa 0.0 l/m 3.1 km/h (1 Bft) S 1.00 h 489 W/m -1.2 C 16.2 C 6.2 km/h (2 Bft)
18.03.2010 14:00 17.1 C 27 % 1023.3 hPa 0.0 l/m 4.7 km/h (1 Bft) SO 1.00 h 447 W/m -2.3 C 17.1 C 7.6 km/h (2 Bft)
18.03.2010 15:00 17.9 C 22 % 1022.8 hPa 0.0 l/m 6.0 km/h (2 Bft) S-SW 1.00 h 332 W/m -4.4 C 17.9 C 10.5 km/h (2 Bft)
18.03.2010 16:00 17.5 C 23 % 1021.9 hPa 0.0 l/m 3.7 km/h (1 Bft) S-SW 0.32 h 172 W/m -4.1 C 17.5 C 6.9 km/h (2 Bft)
18.03.2010 17:00 16.8 C 23 % 1021.3 hPa 0.0 l/m 4.1 km/h (1 Bft) S-SO 0.33 h 91 W/m -4.3 C 16.8 C 7.5 km/h (2 Bft)
18.03.2010 18:00 15.0 C 28 % 1021.2 hPa 0.0 l/m 3.0 km/h (1 Bft) SO 0.00 h 18 W/m -3.2 C 15.0 C 4.9 km/h (1 Bft)
18.03.2010 19:00 12.7 C 38 % 1021.7 hPa 0.0 l/m 2.6 km/h (1 Bft) O-SO 0.00 h 0 W/m -1.4 C 12.7 C 4.2 km/h (1 Bft)
18.03.2010 20:00 10.5 C 50 % 1021.8 hPa 0.0 l/m 0.7 km/h (0 Bft) O 0.00 h 0 W/m 0.4 C 10.5 C 1.5 km/h (1 Bft)
18.03.2010 21:00 8.3 C 60 % 1022.2 hPa 0.0 l/m 0.8 km/h (0 Bft) O 0.00 h 0 W/m 0.9 C 8.3 C 1.7 km/h (1 Bft)
18.03.2010 22:00 6.6 C 67 % 1022.5 hPa 0.0 l/m 1.1 km/h (1 Bft) O-SO 0.00 h 0 W/m 0.8 C 6.6 C 2.0 km/h (1 Bft)
18.03.2010 23:00 5.7 C 69 % 1022.5 hPa 0.0 l/m 0.0 km/h (0 Bft) N 0.00 h 0 W/m 0.5 C 5.7 C 0.3 km/h (0 Bft)
19.03.2010 00:00 4.9 C 73 % 1022.5 hPa 0.0 l/m 0.5 km/h (0 Bft) O-SO 0.00 h 0 W/m 0.4 C 4.9 C 1.0 km/h (0 Bft)
19.03.2010 01:00 4.0 C 76 % 1022.9 hPa 0.0 l/m 0.7 km/h (0 Bft) O-SO 0.00 h 0 W/m 0.2 C 4.0 C 1.5 km/h (1 Bft)
19.03.2010 02:00 3.2 C 81 % 1023.3 hPa 0.0 l/m 2.0 km/h (1 Bft) O-SO 0.00 h 0 W/m 0.2 C 3.0 C 2.9 km/h (1 Bft)
19.03.2010 03:00 2.8 C 81 % 1023.3 hPa 0.0 l/m 0.5 km/h (0 Bft) O-SO 0.00 h 0 W/m -0.1 C 2.8 C 1.0 km/h (0 Bft)
19.03.2010 04:00 2.7 C 82 % 1023.4 hPa 0.0 l/m 0.4 km/h (0 Bft) O-SO 0.00 h 0 W/m -0.2 C 2.7 C 0.8 km/h (0 Bft)
19.03.2010 05:00 2.6 C 82 % 1024.0 hPa 0.0 l/m 0.8 km/h (0 Bft) O-SO 0.00 h 0 W/m -0.1 C 2.5 C 1.3 km/h (1 Bft)
19.03.2010 06:00 2.4 C 83 % 1024.3 hPa 0.0 l/m 0.0 km/h (0 Bft) N 0.00 h 10 W/m -0.1 C 2.4 C 0.1 km/h (0 Bft)
19.03.2010 07:00 2.7 C 85 % 1024.8 hPa 0.0 l/m 0.1 km/h (0 Bft) O-SO 0.00 h 46 W/m 0.5 C 2.7 C 0.5 km/h (0 Bft)
19.03.2010 08:00 4.1 C 83 % 1025.2 hPa 0.0 l/m 1.0 km/h (0 Bft) SO 0.17 h 160 W/m 1.5 C 4.0 C 2.0 km/h (1 Bft)
19.03.2010 09:00 8.6 C 68 % 1025.0 hPa 0.0 l/m 2.7 km/h (1 Bft) S-SW 0.48 h 285 W/m 2.9 C 8.5 C 5.5 km/h (1 Bft)
19.03.2010 10:00 11.8 C 55 % 1024.4 hPa 0.0 l/m 3.8 km/h (1 Bft) S-SO 0.95 h 458 W/m 3.1 C 11.8 C 7.3 km/h (2 Bft)
19.03.2010 11:00 14.6 C 46 % 1023.6 hPa 0.0 l/m 5.1 km/h (1 Bft) S 1.00 h 606 W/m 3.0 C 14.6 C 9.4 km/h (2 Bft)
19.03.2010 12:00 16.4 C 38 % 1022.5 hPa 0.0 l/m 4.4 km/h (1 Bft) S-SW 1.00 h 642 W/m 2.0 C 16.4 C 8.3 km/h (2 Bft)
19.03.2010 13:00 17.8 C 33 % 1021.5 hPa 0.0 l/m 3.8 km/h (1 Bft) SO 1.00 h 622 W/m 1.3 C 17.8 C 7.1 km/h (2 Bft)
19.03.2010 14:00 19.0 C 32 % 1020.4 hPa 0.0 l/m 4.7 km/h (1 Bft) S-SO 1.00 h 560 W/m 1.7 C 19.0 C 8.0 km/h (2 Bft)
19.03.2010 15:00 20.2 C 29 % 1019.3 hPa 0.0 l/m 6.2 km/h (2 Bft) S-SW 1.00 h 446 W/m 1.4 C 20.2 C 10.3 km/h (2 Bft)
19.03.2010 16:00 19.5 C 29 % 1018.8 hPa 0.0 l/m 7.3 km/h (2 Bft) S-SO 0.97 h 263 W/m 0.8 C 19.5 C 12.7 km/h (3 Bft)
19.03.2010 17:00 18.1 C 32 % 1018.4 hPa 0.0 l/m 4.7 km/h (1 Bft) S-SO 0.17 h 79 W/m 1.1 C 18.1 C 9.4 km/h (2 Bft)
19.03.2010 18:00 16.3 C 38 % 1018.3 hPa 0.0 l/m 6.0 km/h (2 Bft) S-SO 0.00 h 19 W/m 2.0 C 16.3 C 8.7 km/h (2 Bft)
19.03.2010 19:00 13.7 C 48 % 1018.7 hPa 0.0 l/m 2.6 km/h (1 Bft) SO 0.00 h 0 W/m 2.8 C 13.7 C 4.3 km/h (1 Bft)
19.03.2010 20:00 12.9 C 49 % 1018.8 hPa 0.0 l/m 3.2 km/h (1 Bft) O-SO 0.00 h 0 W/m 2.5 C 12.9 C 4.6 km/h (1 Bft)
19.03.2010 21:00 10.9 C 59 % 1018.5 hPa 0.0 l/m 0.2 km/h (0 Bft) O-SO 0.00 h 0 W/m 3.2 C 10.9 C 0.7 km/h (0 Bft)
19.03.2010 22:00 8.8 C 68 % 1018.3 hPa 0.0 l/m 0.3 km/h (0 Bft) O-SO 0.00 h 0 W/m 3.2 C 8.8 C 0.8 km/h (0 Bft)
19.03.2010 23:00 8.0 C 69 % 1017.9 hPa 0.0 l/m 0.0 km/h (0 Bft) N 0.00 h 0 W/m 2.8 C 8.0 C 0.1 km/h (0 Bft)
20.03.2010 00:00 7.4 C 72 % 1017.7 hPa 0.0 l/m 0.0 km/h (0 Bft) O-SO 0.00 h 0 W/m 2.7 C 7.4 C 0.2 km/h (0 Bft)
20.03.2010 01:00 7.1 C 75 % 1017.7 hPa 0.0 l/m 0.6 km/h (0 Bft) O 0.00 h 0 W/m 2.9 C 7.1 C 1.2 km/h (1 Bft)
20.03.2010 02:00 7.0 C 78 % 1017.5 hPa 0.0 l/m 1.0 km/h (0 Bft) O 0.00 h 0 W/m 3.4 C 7.0 C 1.7 km/h (1 Bft)
20.03.2010 03:00 7.0 C 82 % 1017.0 hPa 0.0 l/m 0.8 km/h (0 Bft) SO 0.00 h 0 W/m 4.2 C 7.0 C 2.0 km/h (1 Bft)
20.03.2010 04:00 7.2 C 83 % 1016.9 hPa 0.0 l/m 0.7 km/h (0 Bft) O 0.00 h 0 W/m 4.5 C 7.1 C 1.5 km/h (1 Bft)
20.03.2010 05:00 7.4 C 84 % 1017.1 hPa 0.2 l/m 1.0 km/h (0 Bft) O 0.00 h 0 W/m 4.9 C 7.4 C 1.9 km/h (1 Bft)
20.03.2010 06:00 7.2 C 85 % 1017.3 hPa 0.0 l/m 0.0 km/h (0 Bft) N 0.00 h 7 W/m 4.9 C 7.2 C 0.2 km/h (0 Bft)
20.03.2010 07:00 7.2 C 88 % 1017.7 hPa 0.0 l/m 0.9 km/h (0 Bft) O-SO 0.27 h 71 W/m 5.4 C 7.2 C 1.8 km/h (1 Bft)
20.03.2010 08:00 8.2 C 87 % 1017.9 hPa 0.0 l/m 0.3 km/h (0 Bft) N-NW 0.12 h 108 W/m 6.1 C 8.2 C 0.9 km/h (0 Bft)
20.03.2010 09:00 9.6 C 83 % 1017.9 hPa 0.0 l/m 0.3 km/h (0 Bft) N-NW 0.00 h 177 W/m 6.9 C 9.6 C 1.4 km/h (1 Bft)
20.03.2010 10:00 11.4 C 78 % 1017.7 hPa 0.0 l/m 0.5 km/h (0 Bft) SW 0.00 h 162 W/m 7.7 C 11.4 C 1.5 km/h (1 Bft)
20.03.2010 11:00 13.9 C 68 % 1016.9 hPa 0.0 l/m 5.3 km/h (1 Bft) S-SO 0.62 h 371 W/m 8.1 C 13.9 C 9.7 km/h (2 Bft)
20.03.2010 12:00 16.0 C 59 % 1016.1 hPa 0.0 l/m 6.1 km/h (2 Bft) S-SO 0.28 h 392 W/m 8.0 C 16.0 C 11.1 km/h (2 Bft)
20.03.2010 13:00 16.2 C 58 % 1015.4 hPa 0.2 l/m 7.6 km/h (2 Bft) S-SO 0.00 h 247 W/m 8.0 C 16.2 C 13.7 km/h (3 Bft)
20.03.2010 14:00 16.7 C 55 % 1014.9 hPa 0.0 l/m 11.4 km/h (2 Bft) SW 0.00 h 157 W/m 7.5 C 16.7 C 18.6 km/h (3 Bft)
20.03.2010 15:00 16.6 C 55 % 1015.0 hPa 0.0 l/m 9.8 km/h (2 Bft) SW 0.00 h 114 W/m 7.5 C 16.6 C 15.5 km/h (3 Bft)
20.03.2010 16:00 16.2 C 59 % 1015.3 hPa 0.0 l/m 8.4 km/h (2 Bft) SW 0.00 h 101 W/m 8.1 C 16.2 C 12.5 km/h (3 Bft)
20.03.2010 17:00 14.8 C 71 % 1015.7 hPa 0.0 l/m 5.3 km/h (1 Bft) S-SW 0.00 h 48 W/m 9.6 C 14.8 C 9.4 km/h (2 Bft)
20.03.2010 18:00 13.1 C 80 % 1016.2 hPa 0.2 l/m 4.4 km/h (1 Bft) S-SW 0.00 h 14 W/m 9.7 C 13.1 C 8.4 km/h (2 Bft)
20.03.2010 19:00 12.3 C 85 % 1016.3 hPa 0.2 l/m 3.0 km/h (1 Bft) S-SO 0.00 h 0 W/m 9.9 C 12.3 C 5.8 km/h (2 Bft)
20.03.2010 20:00 12.0 C 87 % 1016.1 hPa 0.6 l/m 3.0 km/h (1 Bft) S-SO 0.00 h 0 W/m 10.0 C 12.0 C 6.2 km/h (2 Bft)
20.03.2010 21:00 11.7 C 89 % 1016.0 hPa 0.0 l/m 1.2 km/h (1 Bft) S-SO 0.00 h 0 W/m 10.0 C 11.7 C 2.7 km/h (1 Bft)
20.03.2010 22:00 11.4 C 90 % 1015.9 hPa 0.4 l/m 1.0 km/h (0 Bft) O 0.00 h 0 W/m 9.9 C 11.4 C 2.4 km/h (1 Bft)
20.03.2010 23:00 11.3 C 91 % 1015.5 hPa 0.2 l/m 0.7 km/h (0 Bft) O 0.00 h 0 W/m 9.9 C 11.3 C 1.7 km/h (1 Bft)
21.03.2010 00:00 11.1 C 91 % 1015.2 hPa 0.4 l/m 0.6 km/h (0 Bft) S 0.00 h 0 W/m 9.7 C 11.1 C 1.5 km/h (1 Bft)
21.03.2010 01:00 10.8 C 92 % 1014.7 hPa 0.0 l/m 0.5 km/h (0 Bft) W 0.00 h 0 W/m 9.6 C 10.8 C 1.6 km/h (1 Bft)
21.03.2010 02:00 10.7 C 93 % 1014.0 hPa 0.0 l/m 1.1 km/h (1 Bft) S 0.00 h 0 W/m 9.6 C 10.7 C 3.5 km/h (1 Bft)
21.03.2010 03:00 10.9 C 91 % 1013.4 hPa 0.0 l/m 1.2 km/h (1 Bft) NW 0.00 h 0 W/m 9.5 C 10.9 C 3.0 km/h (1 Bft)
21.03.2010 04:00 10.3 C 91 % 1014.1 hPa 0.8 l/m 3.9 km/h (1 Bft) NW 0.00 h 0 W/m 8.9 C 10.3 C 6.7 km/h (2 Bft)
21.03.2010 05:00 10.2 C 94 % 1014.4 hPa 0.8 l/m 3.9 km/h (1 Bft) S-SO 0.00 h 0 W/m 9.4 C 10.2 C 6.4 km/h (2 Bft)
21.03.2010 06:00 10.6 C 96 % 1014.9 hPa 1.8 l/m 5.0 km/h (1 Bft) S 0.00 h 0 W/m 10.0 C 10.6 C 9.3 km/h (2 Bft)
21.03.2010 07:00 10.8 C 95 % 1015.2 hPa 0.6 l/m 5.5 km/h (1 Bft) S-SW 0.00 h 8 W/m 10.1 C 10.8 C 10.0 km/h (2 Bft)
21.03.2010 08:00 10.9 C 96 % 1015.8 hPa 0.8 l/m 5.2 km/h (1 Bft) SW 0.00 h 13 W/m 10.3 C 10.9 C 9.1 km/h (2 Bft)
21.03.2010 09:00 11.2 C 96 % 1016.5 hPa 0.0 l/m 8.2 km/h (2 Bft) S-SW 0.00 h 48 W/m 10.6 C 11.2 C 13.8 km/h (3 Bft)
21.03.2010 10:00 11.7 C 94 % 1017.0 hPa 0.0 l/m 9.0 km/h (2 Bft) S-SW 0.00 h 99 W/m 10.7 C 11.7 C 15.8 km/h (3 Bft)
21.03.2010 11:00 12.4 C 90 % 1017.2 hPa 0.0 l/m 8.8 km/h (2 Bft) S-SW 0.05 h 212 W/m 10.8 C 12.4 C 15.7 km/h (3 Bft)
21.03.2010 12:00 13.7 C 82 % 1017.1 hPa 0.0 l/m 10.3 km/h (2 Bft) SW 0.08 h 277 W/m 10.7 C 13.7 C 17.9 km/h (3 Bft)
21.03.2010 13:00 14.6 C 78 % 1017.2 hPa 0.2 l/m 9.2 km/h (2 Bft) S-SW 0.15 h 270 W/m 10.7 C 14.6 C 15.8 km/h (3 Bft)
21.03.2010 14:00 14.2 C 80 % 1017.5 hPa 0.2 l/m 5.4 km/h (1 Bft) W-SW 0.00 h 88 W/m 10.8 C 14.2 C 8.4 km/h (2 Bft)
21.03.2010 15:00 13.2 C 86 % 1017.7 hPa 1.6 l/m 7.9 km/h (2 Bft) W 0.00 h 71 W/m 10.9 C 13.2 C 12.4 km/h (3 Bft)
21.03.2010 16:00 12.3 C 86 % 1018.4 hPa 0.0 l/m 13.7 km/h (3 Bft) W 0.07 h 129 W/m 10.0 C 12.3 C 20.9 km/h (4 Bft)
21.03.2010 17:00 12.2 C 80 % 1018.8 hPa 0.0 l/m 12.5 km/h (3 Bft) W 0.07 h 83 W/m 8.8 C 12.2 C 19.2 km/h (3 Bft)
21.03.2010 18:00 11.6 C 78 % 1019.5 hPa 0.0 l/m 8.8 km/h (2 Bft) W 0.03 h 21 W/m 7.9 C 11.6 C 13.2 km/h (3 Bft)
21.03.2010 19:00 11.0 C 79 % 1020.4 hPa 0.0 l/m 5.8 km/h (2 Bft) W-SW 0.00 h 0 W/m 7.4 C 11.0 C 9.1 km/h (2 Bft)
21.03.2010 20:00 10.4 C 76 % 1021.1 hPa 0.0 l/m 4.9 km/h (1 Bft) SW 0.00 h 0 W/m 6.4 C 10.4 C 7.9 km/h (2 Bft)
21.03.2010 21:00 10.5 C 71 % 1021.8 hPa 0.0 l/m 10.1 km/h (2 Bft) W 0.00 h 0 W/m 5.4 C 10.5 C 15.0 km/h (3 Bft)
21.03.2010 22:00 9.5 C 75 % 1022.3 hPa 0.0 l/m 1.8 km/h (1 Bft) NW 0.00 h 0 W/m 5.3 C 9.5 C 3.2 km/h (1 Bft)
21.03.2010 23:00 8.3 C 81 % 1022.5 hPa 0.0 l/m 0.1 km/h (0 Bft) NW 0.00 h 0 W/m 5.2 C 8.3 C 0.5 km/h (0 Bft)
Min-Datum _ 17.03.10 18.03.10 21.03.10 - 15.03.10 - - - 18.03.10 17.03.10 15.03.10
_ Min-Zeit 04:51 15:25 03:45 - 00:01 - - - 15:41 05:58 00:02
Minimum _ -1.8 C 19 % 1013.1 hPa - 0.0 km/h (0 Bft) - - - -6.1 C -2.9 C 0.0 km/h (0 Bft)
Max-Datum _ 19.03.10 17.03.10 17.03.10 21.03.10 21.03.10 - 15.03.10 21.03.10 21.03.10 19.03.10 21.03.10
_ Max-Zeit 15:37 10:27 09:15 06:01 17:02 - 10:30 12:48 14:14 15:37 13:09
Maximum _ 20.5 C 98 % 1031.0 hPa 1.8 l/m 24.3 km/h
W (4 Bft)
- 0.02 h 909 W/m 11.3 C 20.5 C 34.8 km/h
SW (5 Bft)
Durchschnitt _ 7.9 C 73 % 1023.2 hPa #11.0 l/m 3.2 km/h (1 Bft) S-SO #35:23 h 120 W/m 2.6 C 7.7 C 5.6 km/h (1 Bft)
© Kaiko 2010